createdAt,value
2023-03-03T00:01:30.528Z,2.50
2023-03-03T00:03:57.602Z,2.60
2023-03-03T00:06:24.952Z,2.60
2023-03-03T00:08:52.386Z,2.70
2023-03-03T00:11:19.294Z,2.70
2023-03-03T00:13:56.956Z,2.70
2023-03-03T00:16:26.545Z,2.70
2023-03-03T00:18:53.866Z,2.60
2023-03-03T00:21:41.261Z,2.60
2023-03-03T00:24:37.730Z,2.60
2023-03-03T00:27:29.204Z,2.50
2023-03-03T00:29:58.449Z,2.40
2023-03-03T00:32:59.279Z,2.40
2023-03-03T00:35:38.831Z,2.30
2023-03-03T00:38:18.302Z,2.30
2023-03-03T00:40:46.353Z,2.30
2023-03-03T00:43:24.455Z,2.40
2023-03-03T00:45:55.101Z,2.20
2023-03-03T00:48:24.546Z,2.20
2023-03-03T00:50:56.438Z,2.20
2023-03-03T00:53:25.279Z,2.10
2023-03-03T00:55:53.342Z,2.10
2023-03-03T00:58:21.846Z,2.00
2023-03-03T01:00:50.304Z,2.00
2023-03-03T01:03:19.913Z,2.00
2023-03-03T01:05:47.028Z,2.00
2023-03-03T01:08:32.237Z,1.90
2023-03-03T01:11:03.611Z,1.80
2023-03-03T01:13:37.925Z,1.80
2023-03-03T01:16:05.570Z,1.70
2023-03-03T01:18:32.876Z,1.70
2023-03-03T01:20:59.715Z,1.60
2023-03-03T01:23:26.395Z,1.60
2023-03-03T01:25:56.156Z,1.50
2023-03-03T01:28:22.791Z,1.50
2023-03-03T01:30:49.534Z,1.50
2023-03-03T01:33:16.357Z,1.40
2023-03-03T01:35:47.184Z,1.40
2023-03-03T01:38:15.164Z,1.40
2023-03-03T01:40:42.026Z,1.30
2023-03-03T01:43:08.924Z,1.30
2023-03-03T01:45:47.472Z,1.30
2023-03-03T01:48:29.706Z,1.30
2023-03-03T01:51:03.608Z,1.20
2023-03-03T01:53:45.967Z,1.20
2023-03-03T01:56:14.558Z,1.10
2023-03-03T01:59:01.632Z,1.10
2023-03-03T02:01:29.893Z,1.10
2023-03-03T02:03:57.194Z,1.00
2023-03-03T02:06:29.872Z,1.00
2023-03-03T02:08:59.800Z,1.00
2023-03-03T02:11:27.473Z,1.00
2023-03-03T02:13:54.125Z,1.00
2023-03-03T02:16:29.709Z,0.90
2023-03-03T02:18:56.713Z,0.90
2023-03-03T02:21:30.470Z,0.90
2023-03-03T02:24:08.997Z,0.90
2023-03-03T02:26:51.181Z,0.80
2023-03-03T02:29:17.894Z,0.80
2023-03-03T02:31:44.633Z,0.80
2023-03-03T02:34:11.535Z,0.80
2023-03-03T02:36:39.745Z,0.80
2023-03-03T02:39:24.817Z,0.70
2023-03-03T02:42:04.037Z,0.70
2023-03-03T02:44:46.017Z,0.70
2023-03-03T02:47:12.915Z,0.60
2023-03-03T02:49:39.626Z,0.60
2023-03-03T02:52:12.654Z,0.60
2023-03-03T02:54:39.468Z,0.60
2023-03-03T02:57:25.459Z,0.60
2023-03-03T02:59:52.103Z,0.60
2023-03-03T03:02:19.429Z,0.60
2023-03-03T03:04:58.922Z,0.60
2023-03-03T03:07:25.608Z,0.60
2023-03-03T03:09:52.924Z,0.60
2023-03-03T03:12:22.712Z,0.60
2023-03-03T03:14:49.411Z,0.60
2023-03-03T03:17:16.036Z,0.60
2023-03-03T03:19:45.216Z,0.60
2023-03-03T03:22:19.432Z,0.60
2023-03-03T03:24:56.162Z,0.60
2023-03-03T03:27:26.328Z,0.60
2023-03-03T03:29:55.761Z,0.60
2023-03-03T03:32:22.575Z,0.70
2023-03-03T03:34:49.538Z,0.60
2023-03-03T03:37:16.192Z,0.60
2023-03-03T03:39:43.074Z,0.60
2023-03-03T03:42:27.983Z,0.60
2023-03-03T03:44:54.693Z,0.70
2023-03-03T03:47:21.333Z,0.70
2023-03-03T03:49:47.951Z,0.70
2023-03-03T03:52:14.601Z,0.70
2023-03-03T03:54:46.168Z,0.80
2023-03-03T03:57:16.487Z,0.80
2023-03-03T03:59:43.224Z,0.80
2023-03-03T04:02:09.936Z,0.90
2023-03-03T04:04:42.605Z,0.90
2023-03-03T04:07:11.428Z,0.90
2023-03-03T04:09:38.397Z,1.00
2023-03-03T04:12:21.698Z,1.10
2023-03-03T04:14:48.363Z,1.10
2023-03-03T04:17:19.723Z,1.10
2023-03-03T04:19:46.441Z,1.10
2023-03-03T04:22:15.120Z,1.20
2023-03-03T04:24:53.515Z,1.20
2023-03-03T04:27:20.202Z,1.30
2023-03-03T04:29:47.107Z,1.40
2023-03-03T04:32:13.882Z,1.40
2023-03-03T04:34:40.739Z,1.50
2023-03-03T04:37:20.037Z,1.50
2023-03-03T04:39:46.798Z,1.40
2023-03-03T04:42:13.907Z,1.60
2023-03-03T04:44:58.114Z,1.60
2023-03-03T04:47:24.834Z,1.60
2023-03-03T04:49:51.503Z,1.60
2023-03-03T04:52:18.206Z,1.60
2023-03-03T04:54:44.895Z,1.60
2023-03-03T04:57:21.462Z,1.60
2023-03-03T04:59:48.235Z,1.70
2023-03-03T05:02:15.111Z,1.80
2023-03-03T05:04:59.818Z,1.90
2023-03-03T05:07:26.515Z,1.90
2023-03-03T05:09:56.211Z,1.90
2023-03-03T05:12:23.167Z,1.90
2023-03-03T05:14:49.918Z,1.80
2023-03-03T05:17:17.005Z,1.80
2023-03-03T05:19:43.781Z,1.80
2023-03-03T05:22:10.704Z,1.80
2023-03-03T05:24:37.667Z,1.80
2023-03-03T05:27:04.534Z,1.80
2023-03-03T05:29:33.389Z,1.80
2023-03-03T05:32:00.519Z,1.70
2023-03-03T05:34:27.791Z,1.80
2023-03-03T05:36:54.787Z,1.80
2023-03-03T05:39:21.478Z,1.70
2023-03-03T05:41:48.172Z,1.70
2023-03-03T05:44:14.964Z,1.70
2023-03-03T05:46:42.719Z,1.80
2023-03-03T05:49:09.725Z,1.70
2023-03-03T05:51:36.524Z,1.80
2023-03-03T05:54:03.339Z,1.80
2023-03-03T05:56:30.113Z,1.80
2023-03-03T05:58:56.868Z,1.70
2023-03-03T06:01:23.622Z,1.70
2023-03-03T06:03:50.348Z,1.80
2023-03-03T06:06:19.217Z,1.80
2023-03-03T06:08:46.022Z,1.70
2023-03-03T06:11:13.812Z,1.80
2023-03-03T06:13:42.667Z,1.80
2023-03-03T06:16:09.797Z,1.80
2023-03-03T06:18:36.900Z,1.90
2023-03-03T06:21:22.127Z,1.90
2023-03-03T06:23:48.766Z,1.90
2023-03-03T06:26:15.543Z,1.90
2023-03-03T06:28:56.635Z,1.90
2023-03-03T06:31:23.667Z,2.00
2023-03-03T06:33:51.449Z,2.00
2023-03-03T06:36:19.106Z,2.00
2023-03-03T06:38:45.744Z,2.00
2023-03-03T06:41:19.956Z,2.00
2023-03-03T06:43:46.597Z,2.00
2023-03-03T06:46:13.308Z,2.10
2023-03-03T06:48:45.342Z,2.10
2023-03-03T06:51:35.218Z,2.10
2023-03-03T06:54:31.251Z,2.10
2023-03-03T06:57:23.241Z,2.20
2023-03-03T06:59:53.612Z,2.20
2023-03-03T07:02:49.695Z,2.20
2023-03-03T07:05:26.132Z,2.20
2023-03-03T07:07:54.490Z,2.20
2023-03-03T07:10:45.155Z,2.20
2023-03-03T07:13:33.377Z,2.20
2023-03-03T07:16:09.318Z,2.30
2023-03-03T07:18:45.643Z,2.30
2023-03-03T07:21:22.021Z,2.40
2023-03-03T07:23:55.545Z,2.40
2023-03-03T07:26:28.828Z,2.50
2023-03-03T07:29:34.488Z,2.60
2023-03-03T07:32:02.626Z,2.50
2023-03-03T07:34:44.128Z,2.60
2023-03-03T07:37:25.858Z,2.80
2023-03-03T07:40:22.211Z,2.90
2023-03-03T07:42:49.326Z,3.00
2023-03-03T07:45:30.702Z,3.20
2023-03-03T07:48:49.678Z,3.30
2023-03-03T07:51:27.712Z,3.20
2023-03-03T07:54:15.022Z,3.10
2023-03-03T07:56:42.179Z,3.30
2023-03-03T07:59:24.589Z,3.30
2023-03-03T08:02:00.920Z,3.40
2023-03-03T08:04:39.186Z,3.40
2023-03-03T08:07:16.465Z,3.60
2023-03-03T08:10:00.378Z,3.50
2023-03-03T08:12:32.696Z,3.40
2023-03-03T08:15:15.425Z,3.40
2023-03-03T08:17:43.165Z,3.50
2023-03-03T08:20:39.222Z,3.60
2023-03-03T08:23:05.893Z,3.60
2023-03-03T08:25:32.548Z,3.80
2023-03-03T08:28:10.101Z,4.10
2023-03-03T08:30:37.042Z,3.80
2023-03-03T08:33:04.482Z,3.90
2023-03-03T08:35:39.793Z,3.80
2023-03-03T08:38:07.575Z,3.70
2023-03-03T08:40:34.996Z,3.90
2023-03-03T08:43:01.770Z,4.10
2023-03-03T08:45:31.277Z,3.90
2023-03-03T08:47:59.846Z,3.80
2023-03-03T08:50:27.901Z,3.90
2023-03-03T08:52:55.061Z,4.00
2023-03-03T08:55:23.869Z,3.80
2023-03-03T08:57:53.584Z,3.80
2023-03-03T09:00:31.564Z,3.60
2023-03-03T09:03:01.238Z,3.60
2023-03-03T09:05:37.389Z,3.70
2023-03-03T09:08:04.411Z,3.70
2023-03-03T09:10:32.100Z,3.80
2023-03-03T09:13:14.373Z,3.70
2023-03-03T09:15:47.999Z,3.90
2023-03-03T09:18:16.502Z,3.90
2023-03-03T09:20:49.109Z,3.70
2023-03-03T09:23:28.600Z,3.70
2023-03-03T09:25:55.687Z,3.70
2023-03-03T09:28:28.216Z,3.90
2023-03-03T09:30:59.994Z,3.80
2023-03-03T09:33:26.653Z,4.00
2023-03-03T09:36:00.872Z,4.00
2023-03-03T09:38:27.656Z,4.10
2023-03-03T09:41:03.231Z,4.20
2023-03-03T09:43:56.682Z,4.50
2023-03-03T09:46:38.463Z,4.60
2023-03-03T09:49:45.455Z,4.60
2023-03-03T09:52:56.540Z,4.80
2023-03-03T09:56:10.117Z,4.70
2023-03-03T09:58:48.321Z,4.70
2023-03-03T10:01:39.598Z,4.60
2023-03-03T10:05:03.419Z,4.70
2023-03-03T10:07:47.327Z,4.90
2023-03-03T10:10:53.525Z,5.00
2023-03-03T10:13:38.760Z,5.00
2023-03-03T10:16:36.376Z,5.10
2023-03-03T10:19:32.891Z,5.10
2023-03-03T10:22:17.535Z,5.20
2023-03-03T10:25:16.705Z,5.30
2023-03-03T10:28:20.129Z,5.30
2023-03-03T10:31:10.844Z,5.20
2023-03-03T10:34:02.296Z,5.20
2023-03-03T10:36:37.703Z,5.20
2023-03-03T10:39:10.329Z,5.40
2023-03-03T10:42:22.284Z,5.20
2023-03-03T10:45:04.793Z,5.20
2023-03-03T10:47:42.516Z,5.30
2023-03-03T10:50:38.516Z,5.40
2023-03-03T10:53:34.569Z,5.80
2023-03-03T10:56:29.130Z,6.10
2023-03-03T10:59:19.051Z,6.50
2023-03-03T11:01:46.234Z,7.00
2023-03-03T11:04:29.037Z,7.10
2023-03-03T11:07:10.134Z,7.20
2023-03-03T11:10:02.233Z,7.20
2023-03-03T11:12:50.857Z,7.20
2023-03-03T11:15:26.968Z,7.00
2023-03-03T11:18:13.754Z,7.10
2023-03-03T11:20:59.940Z,7.00
2023-03-03T11:23:32.286Z,7.20
2023-03-03T11:26:09.083Z,7.00
2023-03-03T11:28:38.779Z,7.10
2023-03-03T11:31:22.039Z,7.30
2023-03-03T11:34:10.731Z,7.50
2023-03-03T11:36:43.354Z,7.40
2023-03-03T11:39:14.429Z,7.80
2023-03-03T11:41:56.393Z,7.90
2023-03-03T11:44:32.519Z,8.00
2023-03-03T11:47:18.158Z,8.00
2023-03-03T11:50:03.438Z,8.10
2023-03-03T11:52:47.777Z,8.00
2023-03-03T11:55:22.504Z,7.90
2023-03-03T11:57:57.228Z,7.90
2023-03-03T12:00:45.380Z,8.10
2023-03-03T12:03:36.383Z,7.90
2023-03-03T12:06:27.407Z,7.60
2023-03-03T12:09:14.215Z,7.40
2023-03-03T12:12:13.358Z,7.10
2023-03-03T12:15:04.520Z,7.00
2023-03-03T12:17:59.035Z,6.70
2023-03-03T12:20:39.248Z,6.50
2023-03-03T12:23:24.984Z,6.60
2023-03-03T12:26:14.739Z,6.40
2023-03-03T12:28:52.260Z,6.40
2023-03-03T12:31:44.168Z,6.40
2023-03-03T12:34:43.228Z,6.40
2023-03-03T12:37:27.451Z,6.50
2023-03-03T12:40:10.030Z,6.50
2023-03-03T12:42:54.186Z,6.60
2023-03-03T12:45:33.114Z,6.80
2023-03-03T12:48:40.945Z,6.90
2023-03-03T12:51:56.226Z,7.00
2023-03-03T12:54:44.399Z,7.10
2023-03-03T12:57:18.189Z,7.10
2023-03-03T12:59:55.205Z,7.10
2023-03-03T13:02:46.910Z,7.20
2023-03-03T13:05:34.650Z,7.30
2023-03-03T13:08:21.247Z,7.60
2023-03-03T13:10:48.043Z,7.60
2023-03-03T13:13:41.021Z,7.60
2023-03-03T13:16:24.138Z,7.70
2023-03-03T13:19:21.959Z,7.70
2023-03-03T13:22:17.273Z,7.70
2023-03-03T13:25:28.369Z,7.80
2023-03-03T13:28:14.048Z,7.80
2023-03-03T13:30:56.901Z,8.00
2023-03-03T13:33:34.794Z,8.10
2023-03-03T13:36:08.680Z,8.30
2023-03-03T13:38:47.058Z,8.50
2023-03-03T13:41:42.161Z,8.60
2023-03-03T13:44:24.818Z,8.40
2023-03-03T13:47:13.854Z,8.30
2023-03-03T13:50:04.190Z,8.30
2023-03-03T13:52:36.141Z,8.40
2023-03-03T13:55:16.144Z,8.20
2023-03-03T13:58:01.840Z,7.90
2023-03-03T14:00:53.464Z,8.00
2023-03-03T14:03:55.472Z,7.70
2023-03-03T14:06:30.646Z,7.70
2023-03-03T14:09:43.879Z,7.80
2023-03-03T14:12:21.608Z,7.70
2023-03-03T14:15:17.373Z,7.80
2023-03-03T14:18:38.303Z,7.80
2023-03-03T14:21:18.892Z,7.80
2023-03-03T14:23:57.300Z,7.80
2023-03-03T14:26:24.032Z,7.80
2023-03-03T14:28:53.093Z,7.70
2023-03-03T14:31:26.338Z,7.50
2023-03-03T14:34:21.721Z,7.40
2023-03-03T14:36:50.175Z,7.60
2023-03-03T14:39:34.225Z,7.60
2023-03-03T14:42:05.206Z,7.50
2023-03-03T14:44:38.708Z,7.50
2023-03-03T14:47:17.725Z,7.40
2023-03-03T14:49:44.592Z,7.50
2023-03-03T14:52:17.549Z,7.60
2023-03-03T14:54:53.252Z,7.40
2023-03-03T14:57:41.501Z,7.40
2023-03-03T15:00:27.776Z,7.40
2023-03-03T15:03:23.366Z,7.40
2023-03-03T15:06:03.012Z,7.20
2023-03-03T15:08:35.911Z,7.30
2023-03-03T15:11:17.628Z,7.30
2023-03-03T15:13:49.081Z,7.30
2023-03-03T15:16:35.100Z,7.30
2023-03-03T15:19:33.489Z,7.30
2023-03-03T15:22:37.333Z,7.40
2023-03-03T15:25:24.108Z,7.40
2023-03-03T15:28:08.219Z,7.40
2023-03-03T15:30:52.864Z,7.20
2023-03-03T15:33:30.673Z,7.20
2023-03-03T15:36:28.750Z,7.20
2023-03-03T15:39:16.770Z,7.10
2023-03-03T15:42:04.039Z,7.00
2023-03-03T15:44:52.773Z,7.00
2023-03-03T15:47:49.093Z,7.00
2023-03-03T15:50:21.597Z,7.00
2023-03-03T15:53:21.902Z,6.90
2023-03-03T15:56:13.514Z,6.90
2023-03-03T15:59:07.462Z,6.90
2023-03-03T16:01:39.180Z,6.90
2023-03-03T16:04:15.838Z,6.90
2023-03-03T16:07:13.987Z,6.80
2023-03-03T16:10:05.275Z,6.70
2023-03-03T16:12:53.715Z,6.70
2023-03-03T16:15:50.924Z,6.70
2023-03-03T16:18:37.555Z,6.60
2023-03-03T16:21:29.787Z,6.60
2023-03-03T16:23:59.654Z,6.50
2023-03-03T16:26:52.908Z,6.50
2023-03-03T16:29:38.613Z,6.40
2023-03-03T16:32:32.752Z,6.40
2023-03-03T16:35:17.855Z,6.30
2023-03-03T16:38:01.900Z,6.30
2023-03-03T16:40:50.096Z,6.20
2023-03-03T16:43:40.861Z,6.10
2023-03-03T16:46:16.487Z,6.00
2023-03-03T16:49:02.303Z,5.90
2023-03-03T16:51:43.715Z,5.80
2023-03-03T16:54:27.142Z,5.80
2023-03-03T16:57:00.029Z,5.70
2023-03-03T16:59:38.724Z,5.60
2023-03-03T17:02:24.285Z,5.50
2023-03-03T17:04:51.106Z,5.40
2023-03-03T17:07:39.512Z,5.40
2023-03-03T17:10:26.378Z,5.30
2023-03-03T17:13:15.593Z,5.10
2023-03-03T17:15:48.396Z,5.00
2023-03-03T17:18:28.318Z,5.00
2023-03-03T17:21:00.309Z,4.90
2023-03-03T17:23:57.797Z,4.80
2023-03-03T17:26:44.065Z,4.70
2023-03-03T17:29:13.895Z,4.60
2023-03-03T17:31:47.046Z,4.50
2023-03-03T17:34:31.598Z,4.50
2023-03-03T17:37:37.042Z,4.40
2023-03-03T17:40:15.338Z,4.40
2023-03-03T17:42:54.168Z,4.30
2023-03-03T17:45:22.760Z,4.20
2023-03-03T17:48:05.977Z,4.20
2023-03-03T17:50:47.763Z,4.10
2023-03-03T17:53:42.967Z,4.10
2023-03-03T17:56:22.527Z,4.10
2023-03-03T17:59:22.983Z,4.10
2023-03-03T18:02:05.432Z,4.00
2023-03-03T18:04:50.744Z,4.00
2023-03-03T18:07:56.167Z,3.90
2023-03-03T18:10:43.936Z,3.80
2023-03-03T18:13:44.417Z,3.80
2023-03-03T18:16:36.102Z,3.70
2023-03-03T18:19:17.813Z,3.60
2023-03-03T18:22:10.677Z,3.50
2023-03-03T18:25:01.765Z,3.50
2023-03-03T18:27:31.966Z,3.40
2023-03-03T18:30:18.552Z,3.30
2023-03-03T18:33:08.065Z,3.30
2023-03-03T18:35:38.424Z,3.20
2023-03-03T18:38:29.092Z,3.30
2023-03-03T18:41:04.738Z,3.20
2023-03-03T18:43:59.305Z,3.10
2023-03-03T18:46:26.015Z,3.10
2023-03-03T18:49:06.108Z,3.00
2023-03-03T18:52:13.436Z,3.00
2023-03-03T18:54:41.326Z,2.90
2023-03-03T18:57:17.516Z,2.90
2023-03-03T19:00:15.548Z,2.90
2023-03-03T19:02:58.085Z,2.80
2023-03-03T19:05:25.530Z,2.80
2023-03-03T19:07:58.497Z,2.80
2023-03-03T19:10:50.983Z,2.80
2023-03-03T19:13:26.914Z,2.80
2023-03-03T19:15:56.423Z,2.80
2023-03-03T19:18:26.863Z,2.70
2023-03-03T19:21:05.730Z,2.70
2023-03-03T19:23:51.414Z,2.70
2023-03-03T19:26:30.349Z,2.60
2023-03-03T19:29:21.478Z,2.70
2023-03-03T19:32:09.458Z,2.60
2023-03-03T19:34:59.063Z,2.60
2023-03-03T19:37:58.226Z,2.60
2023-03-03T19:40:38.336Z,2.50
2023-03-03T19:43:42.184Z,2.40
2023-03-03T19:46:33.877Z,2.40
2023-03-03T19:49:27.027Z,2.40
2023-03-03T19:52:21.092Z,2.50
2023-03-03T19:55:18.571Z,2.40
2023-03-03T19:58:01.980Z,2.40
2023-03-03T20:00:42.759Z,2.50
2023-03-03T20:03:31.448Z,2.40
2023-03-03T20:06:01.184Z,2.40
2023-03-03T20:08:41.113Z,2.40
2023-03-03T20:11:17.408Z,2.40
2023-03-03T20:13:56.258Z,2.30
2023-03-03T20:16:23.042Z,2.30
2023-03-03T20:19:20.829Z,2.30
2023-03-03T20:22:24.835Z,2.30
2023-03-03T20:25:21.497Z,2.30
2023-03-03T20:28:07.315Z,2.30
2023-03-03T20:30:55.615Z,2.20
2023-03-03T20:33:43.975Z,2.20
2023-03-03T20:36:19.779Z,2.10
2023-03-03T20:39:02.355Z,2.10
2023-03-03T20:42:11.370Z,2.10
2023-03-03T20:44:44.065Z,2.10
2023-03-03T20:47:20.763Z,2.10
2023-03-03T20:50:15.479Z,2.10
2023-03-03T20:53:09.773Z,2.10
2023-03-03T20:55:57.846Z,2.00
2023-03-03T20:58:43.186Z,2.00
2023-03-03T21:01:17.554Z,2.00
2023-03-03T21:03:45.437Z,2.00
2023-03-03T21:06:18.092Z,1.90
2023-03-03T21:08:53.180Z,1.90
2023-03-03T21:11:32.107Z,1.80
2023-03-03T21:14:00.041Z,1.80
2023-03-03T21:16:26.698Z,1.80
2023-03-03T21:19:00.658Z,1.70
2023-03-03T21:21:35.987Z,1.70
2023-03-03T21:24:03.562Z,1.70
2023-03-03T21:26:48.312Z,1.70
2023-03-03T21:29:21.097Z,1.70
2023-03-03T21:31:55.314Z,1.70
2023-03-03T21:34:35.577Z,1.70
2023-03-03T21:37:15.280Z,1.70
2023-03-03T21:39:43.799Z,1.60
2023-03-03T21:42:21.387Z,1.70
2023-03-03T21:44:49.722Z,1.70
2023-03-03T21:47:28.736Z,1.70
2023-03-03T21:49:55.454Z,1.80
2023-03-03T21:52:22.561Z,1.80
2023-03-03T21:54:55.102Z,1.80
2023-03-03T21:57:22.234Z,1.80
2023-03-03T21:59:48.827Z,1.70
2023-03-03T22:02:15.413Z,1.70
2023-03-03T22:04:42.240Z,1.70
2023-03-03T22:07:09.876Z,1.70
2023-03-03T22:09:37.303Z,1.70
2023-03-03T22:12:05.363Z,1.60
2023-03-03T22:14:32.186Z,1.60
2023-03-03T22:16:59.378Z,1.60
2023-03-03T22:19:26.158Z,1.60
2023-03-03T22:21:52.986Z,1.60
2023-03-03T22:24:19.843Z,1.50
2023-03-03T22:26:46.754Z,1.50
2023-03-03T22:29:16.389Z,1.50
2023-03-03T22:31:43.305Z,1.50
2023-03-03T22:34:10.504Z,1.50
2023-03-03T22:36:37.235Z,1.40
2023-03-03T22:39:04.077Z,1.40
2023-03-03T22:41:31.747Z,1.40
2023-03-03T22:43:58.632Z,1.40
2023-03-03T22:46:25.597Z,1.40
2023-03-03T22:48:52.561Z,1.30
2023-03-03T22:51:22.104Z,1.30
2023-03-03T22:53:48.957Z,1.30
2023-03-03T22:56:15.752Z,1.30
2023-03-03T22:58:42.699Z,1.30
2023-03-03T23:01:09.517Z,1.30
2023-03-03T23:03:37.259Z,1.30
2023-03-03T23:06:04.448Z,1.30
2023-03-03T23:08:31.270Z,1.30
2023-03-03T23:10:58.038Z,1.30
2023-03-03T23:13:30.656Z,1.20
2023-03-03T23:16:00.134Z,1.20
2023-03-03T23:18:28.536Z,1.20
2023-03-03T23:21:00.876Z,1.10
2023-03-03T23:23:27.598Z,1.10
2023-03-03T23:25:54.351Z,1.10
2023-03-03T23:28:21.060Z,1.00
2023-03-03T23:30:47.773Z,1.00
2023-03-03T23:33:17.265Z,1.00
2023-03-03T23:35:45.417Z,1.00
2023-03-03T23:38:23.334Z,0.90
2023-03-03T23:40:50.000Z,0.90
2023-03-03T23:43:16.670Z,0.90
2023-03-03T23:45:43.518Z,0.80
2023-03-03T23:48:10.596Z,0.70
2023-03-03T23:50:38.004Z,0.60
2023-03-03T23:53:05.645Z,0.60
2023-03-03T23:55:38.778Z,0.50
2023-03-03T23:58:05.805Z,0.50
